sensor_id;sensor_type;location;lat;lon;timestamp;P1;durP1;ratioP1;P2;durP2;ratioP2
67164;SDS011;54093;50.014;19.984;2023-08-31T00:04:07;12.50;;;8.55;;
67164;SDS011;54093;50.014;19.984;2023-08-31T00:13:35;8.82;;;7.72;;
67164;SDS011;54093;50.014;19.984;2023-08-31T00:22:56;8.68;;;7.82;;
67164;SDS011;54093;50.014;19.984;2023-08-31T00:32:17;9.75;;;8.15;;
67164;SDS011;54093;50.014;19.984;2023-08-31T00:41:42;9.82;;;8.82;;
67164;SDS011;54093;50.014;19.984;2023-08-31T00:51:06;13.00;;;8.50;;
67164;SDS011;54093;50.014;19.984;2023-08-31T01:00:50;10.73;;;9.30;;
67164;SDS011;54093;50.014;19.984;2023-08-31T01:20:37;8.27;;;7.43;;
67164;SDS011;54093;50.014;19.984;2023-08-31T01:30:03;11.50;;;10.40;;
67164;SDS011;54093;50.014;19.984;2023-08-31T01:39:35;12.05;;;8.43;;
67164;SDS011;54093;50.014;19.984;2023-08-31T01:49:04;12.32;;;9.07;;
67164;SDS011;54093;50.014;19.984;2023-08-31T01:58:26;13.63;;;9.43;;
67164;SDS011;54093;50.014;19.984;2023-08-31T02:07:47;9.38;;;8.50;;
67164;SDS011;54093;50.014;19.984;2023-08-31T02:17:08;9.88;;;8.95;;
67164;SDS011;54093;50.014;19.984;2023-08-31T02:26:29;11.85;;;10.32;;
67164;SDS011;54093;50.014;19.984;2023-08-31T02:35:50;17.05;;;11.68;;
67164;SDS011;54093;50.014;19.984;2023-08-31T02:45:11;19.45;;;13.80;;
67164;SDS011;54093;50.014;19.984;2023-08-31T02:54:32;10.68;;;9.68;;
67164;SDS011;54093;50.014;19.984;2023-08-31T03:03:53;14.80;;;10.43;;
67164;SDS011;54093;50.014;19.984;2023-08-31T03:13:14;11.32;;;10.25;;
67164;SDS011;54093;50.014;19.984;2023-08-31T03:22:35;13.60;;;10.40;;
67164;SDS011;54093;50.014;19.984;2023-08-31T03:31:57;15.18;;;10.60;;
67164;SDS011;54093;50.014;19.984;2023-08-31T03:41:18;16.92;;;12.15;;
67164;SDS011;54093;50.014;19.984;2023-08-31T03:50:39;11.90;;;10.13;;
67164;SDS011;54093;50.014;19.984;2023-08-31T04:00:00;14.25;;;10.38;;
67164;SDS011;54093;50.014;19.984;2023-08-31T04:09:21;15.57;;;12.10;;
67164;SDS011;54093;50.014;19.984;2023-08-31T04:18:43;18.00;;;11.95;;
67164;SDS011;54093;50.014;19.984;2023-08-31T04:28:04;13.52;;;11.55;;
67164;SDS011;54093;50.014;19.984;2023-08-31T04:37:25;15.18;;;12.23;;
67164;SDS011;54093;50.014;19.984;2023-08-31T04:46:46;12.45;;;10.55;;
67164;SDS011;54093;50.014;19.984;2023-08-31T04:56:07;16.38;;;10.90;;
67164;SDS011;54093;50.014;19.984;2023-08-31T05:05:28;9.52;;;8.63;;
67164;SDS011;54093;50.014;19.984;2023-08-31T05:14:49;10.73;;;9.30;;
67164;SDS011;54093;50.014;19.984;2023-08-31T05:24:10;12.15;;;10.95;;
67164;SDS011;54093;50.014;19.984;2023-08-31T05:33:31;16.15;;;12.27;;
67164;SDS011;54093;50.014;19.984;2023-08-31T05:42:54;17.10;;;13.68;;
67164;SDS011;54093;50.014;19.984;2023-08-31T05:52:15;9.10;;;8.25;;
67164;SDS011;54093;50.014;19.984;2023-08-31T06:01:36;10.18;;;7.68;;
67164;SDS011;54093;50.014;19.984;2023-08-31T06:10:58;7.70;;;6.75;;
67164;SDS011;54093;50.014;19.984;2023-08-31T06:20:19;9.77;;;5.13;;
67164;SDS011;54093;50.014;19.984;2023-08-31T06:29:40;4.68;;;4.25;;
67164;SDS011;54093;50.014;19.984;2023-08-31T06:39:01;7.00;;;4.32;;
67164;SDS011;54093;50.014;19.984;2023-08-31T06:48:22;26.65;;;5.68;;
67164;SDS011;54093;50.014;19.984;2023-08-31T06:57:43;11.43;;;4.85;;
67164;SDS011;54093;50.014;19.984;2023-08-31T07:07:05;4.20;;;2.47;;
67164;SDS011;54093;50.014;19.984;2023-08-31T07:16:26;2.90;;;2.75;;
67164;SDS011;54093;50.014;19.984;2023-08-31T07:25:47;3.60;;;2.97;;
67164;SDS011;54093;50.014;19.984;2023-08-31T07:35:08;3.25;;;2.95;;
67164;SDS011;54093;50.014;19.984;2023-08-31T07:44:29;1.98;;;1.88;;
67164;SDS011;54093;50.014;19.984;2023-08-31T07:53:50;2.00;;;1.90;;
67164;SDS011;54093;50.014;19.984;2023-08-31T08:03:12;1.83;;;1.65;;
67164;SDS011;54093;50.014;19.984;2023-08-31T08:12:36;1.20;;;1.20;;
67164;SDS011;54093;50.014;19.984;2023-08-31T08:22:01;2.88;;;1.40;;
67164;SDS011;54093;50.014;19.984;2023-08-31T08:31:26;1.55;;;1.55;;
67164;SDS011;54093;50.014;19.984;2023-08-31T08:40:50;1.27;;;1.27;;
67164;SDS011;54093;50.014;19.984;2023-08-31T08:50:11;2.28;;;1.60;;
67164;SDS011;54093;50.014;19.984;2023-08-31T08:59:33;11.40;;;2.67;;
67164;SDS011;54093;50.014;19.984;2023-08-31T09:08:54;5.28;;;4.78;;
67164;SDS011;54093;50.014;19.984;2023-08-31T09:18:23;2.00;;;1.90;;
67164;SDS011;54093;50.014;19.984;2023-08-31T09:27:46;2.35;;;2.17;;
67164;SDS011;54093;50.014;19.984;2023-08-31T09:37:08;1.98;;;1.88;;
67164;SDS011;54093;50.014;19.984;2023-08-31T09:46:30;2.92;;;1.90;;
67164;SDS011;54093;50.014;19.984;2023-08-31T09:55:51;1.42;;;1.38;;
67164;SDS011;54093;50.014;19.984;2023-08-31T10:05:13;5.85;;;1.60;;
67164;SDS011;54093;50.014;19.984;2023-08-31T10:14:35;1.40;;;1.40;;
67164;SDS011;54093;50.014;19.984;2023-08-31T10:23:56;1.42;;;1.42;;
67164;SDS011;54093;50.014;19.984;2023-08-31T10:33:19;1.42;;;1.40;;
67164;SDS011;54093;50.014;19.984;2023-08-31T10:42:43;1.53;;;1.30;;
67164;SDS011;54093;50.014;19.984;2023-08-31T10:52:17;1.75;;;1.45;;
67164;SDS011;54093;50.014;19.984;2023-08-31T11:01:59;2.35;;;1.25;;
67164;SDS011;54093;50.014;19.984;2023-08-31T11:11:23;1.42;;;1.33;;
67164;SDS011;54093;50.014;19.984;2023-08-31T11:20:45;1.33;;;1.33;;
67164;SDS011;54093;50.014;19.984;2023-08-31T11:30:12;2.65;;;1.70;;
67164;SDS011;54093;50.014;19.984;2023-08-31T11:39:35;1.50;;;1.50;;
67164;SDS011;54093;50.014;19.984;2023-08-31T11:48:56;3.72;;;1.80;;
67164;SDS011;54093;50.014;19.984;2023-08-31T11:58:17;1.95;;;1.45;;
67164;SDS011;54093;50.014;19.984;2023-08-31T12:07:41;1.98;;;1.77;;
67164;SDS011;54093;50.014;19.984;2023-08-31T12:17:03;3.50;;;1.30;;
67164;SDS011;54093;50.014;19.984;2023-08-31T12:26:26;1.80;;;1.70;;
67164;SDS011;54093;50.014;19.984;2023-08-31T12:35:47;1.83;;;1.73;;
67164;SDS011;54093;50.014;19.984;2023-08-31T12:45:09;1.52;;;1.42;;
67164;SDS011;54093;50.014;19.984;2023-08-31T12:54:30;1.45;;;1.35;;
67164;SDS011;54093;50.014;19.984;2023-08-31T13:03:51;1.70;;;1.60;;
67164;SDS011;54093;50.014;19.984;2023-08-31T13:13:13;2.17;;;2.00;;
67164;SDS011;54093;50.014;19.984;2023-08-31T13:22:34;1.70;;;1.70;;
67164;SDS011;54093;50.014;19.984;2023-08-31T13:31:55;1.90;;;1.80;;
67164;SDS011;54093;50.014;19.984;2023-08-31T13:41:16;1.73;;;1.67;;
67164;SDS011;54093;50.014;19.984;2023-08-31T13:50:38;1.80;;;1.70;;
67164;SDS011;54093;50.014;19.984;2023-08-31T13:59:59;2.17;;;1.80;;
67164;SDS011;54093;50.014;19.984;2023-08-31T14:09:20;1.80;;;1.70;;
67164;SDS011;54093;50.014;19.984;2023-08-31T14:18:41;1.92;;;1.75;;
67164;SDS011;54093;50.014;19.984;2023-08-31T14:28:02;1.30;;;1.30;;
67164;SDS011;54093;50.014;19.984;2023-08-31T14:37:23;4.38;;;1.80;;
67164;SDS011;54093;50.014;19.984;2023-08-31T14:46:45;1.35;;;1.35;;
67164;SDS011;54093;50.014;19.984;2023-08-31T14:56:06;4.18;;;1.92;;
67164;SDS011;54093;50.014;19.984;2023-08-31T15:05:28;2.53;;;1.67;;
67164;SDS011;54093;50.014;19.984;2023-08-31T15:14:51;1.90;;;1.80;;
67164;SDS011;54093;50.014;19.984;2023-08-31T15:24:12;3.10;;;1.73;;
67164;SDS011;54093;50.014;19.984;2023-08-31T15:33:33;1.90;;;1.80;;
67164;SDS011;54093;50.014;19.984;2023-08-31T15:42:55;1.90;;;1.80;;
67164;SDS011;54093;50.014;19.984;2023-08-31T15:52:16;1.92;;;1.83;;
67164;SDS011;54093;50.014;19.984;2023-08-31T16:01:37;1.75;;;1.65;;
67164;SDS011;54093;50.014;19.984;2023-08-31T16:10:58;1.80;;;1.70;;
67164;SDS011;54093;50.014;19.984;2023-08-31T16:20:24;5.57;;;2.25;;
67164;SDS011;54093;50.014;19.984;2023-08-31T16:29:45;3.00;;;1.60;;
67164;SDS011;54093;50.014;19.984;2023-08-31T16:39:08;1.50;;;1.40;;
67164;SDS011;54093;50.014;19.984;2023-08-31T16:48:29;1.77;;;1.58;;
67164;SDS011;54093;50.014;19.984;2023-08-31T16:57:50;1.30;;;1.30;;
67164;SDS011;54093;50.014;19.984;2023-08-31T17:07:12;2.08;;;1.63;;
67164;SDS011;54093;50.014;19.984;2023-08-31T17:16:33;2.67;;;1.42;;
67164;SDS011;54093;50.014;19.984;2023-08-31T17:25:55;1.35;;;1.35;;
67164;SDS011;54093;50.014;19.984;2023-08-31T17:35:16;1.83;;;1.73;;
67164;SDS011;54093;50.014;19.984;2023-08-31T17:44:37;1.45;;;1.35;;
67164;SDS011;54093;50.014;19.984;2023-08-31T17:53:58;1.50;;;1.50;;
67164;SDS011;54093;50.014;19.984;2023-08-31T18:03:20;1.50;;;1.50;;
67164;SDS011;54093;50.014;19.984;2023-08-31T18:12:44;1.70;;;1.60;;
67164;SDS011;54093;50.014;19.984;2023-08-31T18:22:06;1.67;;;1.60;;
67164;SDS011;54093;50.014;19.984;2023-08-31T18:31:27;2.13;;;1.92;;
67164;SDS011;54093;50.014;19.984;2023-08-31T18:40:52;1.88;;;1.77;;
67164;SDS011;54093;50.014;19.984;2023-08-31T18:50:14;1.90;;;1.80;;
67164;SDS011;54093;50.014;19.984;2023-08-31T18:59:40;4.43;;;1.80;;
67164;SDS011;54093;50.014;19.984;2023-08-31T19:09:02;1.90;;;1.80;;
67164;SDS011;54093;50.014;19.984;2023-08-31T19:18:24;6.43;;;1.95;;
67164;SDS011;54093;50.014;19.984;2023-08-31T19:27:45;1.63;;;1.52;;
67164;SDS011;54093;50.014;19.984;2023-08-31T19:37:08;1.75;;;1.65;;
67164;SDS011;54093;50.014;19.984;2023-08-31T19:46:30;2.00;;;1.90;;
67164;SDS011;54093;50.014;19.984;2023-08-31T19:55:51;2.65;;;2.08;;
67164;SDS011;54093;50.014;19.984;2023-08-31T20:05:12;1.70;;;1.60;;
67164;SDS011;54093;50.014;19.984;2023-08-31T20:14:34;2.17;;;2.00;;
67164;SDS011;54093;50.014;19.984;2023-08-31T20:23:55;1.98;;;1.88;;
67164;SDS011;54093;50.014;19.984;2023-08-31T20:33:16;2.00;;;1.90;;
67164;SDS011;54093;50.014;19.984;2023-08-31T20:42:38;2.08;;;1.98;;
67164;SDS011;54093;50.014;19.984;2023-08-31T20:51:59;2.72;;;2.53;;
67164;SDS011;54093;50.014;19.984;2023-08-31T21:01:20;2.30;;;2.20;;
67164;SDS011;54093;50.014;19.984;2023-08-31T21:10:44;2.78;;;2.58;;
67164;SDS011;54093;50.014;19.984;2023-08-31T21:20:05;2.83;;;2.63;;
67164;SDS011;54093;50.014;19.984;2023-08-31T21:29:28;2.08;;;1.98;;
67164;SDS011;54093;50.014;19.984;2023-08-31T21:38:50;2.10;;;2.00;;
67164;SDS011;54093;50.014;19.984;2023-08-31T21:48:11;2.90;;;2.40;;
67164;SDS011;54093;50.014;19.984;2023-08-31T21:57:32;7.80;;;2.35;;
67164;SDS011;54093;50.014;19.984;2023-08-31T22:06:53;4.93;;;2.30;;
67164;SDS011;54093;50.014;19.984;2023-08-31T22:16:15;2.60;;;2.40;;
67164;SDS011;54093;50.014;19.984;2023-08-31T22:25:36;2.25;;;2.15;;
67164;SDS011;54093;50.014;19.984;2023-08-31T22:34:57;2.00;;;1.90;;
67164;SDS011;54093;50.014;19.984;2023-08-31T22:44:18;1.98;;;1.70;;
67164;SDS011;54093;50.014;19.984;2023-08-31T22:53:40;1.80;;;1.70;;
67164;SDS011;54093;50.014;19.984;2023-08-31T23:03:01;1.80;;;1.70;;
67164;SDS011;54093;50.014;19.984;2023-08-31T23:12:22;2.35;;;1.70;;
67164;SDS011;54093;50.014;19.984;2023-08-31T23:21:43;1.83;;;1.73;;
67164;SDS011;54093;50.014;19.984;2023-08-31T23:31:04;2.00;;;1.75;;
67164;SDS011;54093;50.014;19.984;2023-08-31T23:40:25;2.10;;;1.80;;
67164;SDS011;54093;50.014;19.984;2023-08-31T23:49:46;1.92;;;1.83;;
67164;SDS011;54093;50.014;19.984;2023-08-31T23:59:07;2.13;;;2.03;;
